N586AT KLAL-KCLW
Flight info
| Callsign | N586AT |
|---|---|
| Flight time | N/A |
| Altitude | VFR |
| Route | |
| Aircraft | BE55/L-V/N |
Departure
| Time | 2026-04-22 00:15 |
|---|---|
| Airport | Lakeland Linder International Airport (KLAL) |
Arrival
| Time | N/A |
|---|---|
| Airport | Clearwater Air Park (KCLW) |
| Time | Latitude | Longitude | Altitude | Speed | Heading |
|---|---|---|---|---|---|
| 2026-04-21 23:56 | 27.99336 | -82.01673 | 130 ft | 0 kts | 314° |
| 2026-04-21 23:58 | 27.99361 | -82.01733 | 130 ft | 9 kts | 242° |
| 2026-04-21 23:58 | 27.99307 | -82.01706 | 130 ft | 14 kts | 136° |
| 2026-04-21 23:59 | 27.99245 | -82.01631 | 129 ft | 15 kts | 136° |
| 2026-04-21 23:59 | 27.99181 | -82.01569 | 130 ft | 8 kts | 125° |
| 2026-04-21 23:59 | 27.99189 | -82.01517 | 129 ft | 8 kts | 27° |
| 2026-04-21 23:59 | 27.99249 | -82.01501 | 130 ft | 10 kts | 6° |
| 2026-04-22 00:00 | 27.99317 | -82.01481 | 130 ft | 12 kts | 19° |
| 2026-04-22 00:00 | 27.99348 | -82.01438 | 130 ft | 12 kts | 82° |
| 2026-04-22 00:00 | 27.99347 | -82.01361 | 130 ft | 8 kts | 95° |
| 2026-04-22 00:00 | 27.99326 | -82.01313 | 130 ft | 6 kts | 132° |
| 2026-04-22 00:01 | 27.99296 | -82.01280 | 130 ft | 7 kts | 136° |
| 2026-04-22 00:01 | 27.99260 | -82.01241 | 129 ft | 8 kts | 148° |
| 2026-04-22 00:01 | 27.99200 | -82.01256 | 131 ft | 12 kts | 223° |
| 2026-04-22 00:01 | 27.99131 | -82.01332 | 129 ft | 16 kts | 225° |
| 2026-04-22 00:02 | 27.99101 | -82.01366 | 131 ft | 0 kts | 227° |
| 2026-04-22 00:03 | 27.99100 | -82.01366 | 131 ft | 1 kts | 227° |
| 2026-04-22 00:03 | 27.99077 | -82.01395 | 132 ft | 9 kts | 224° |
| 2026-04-22 00:03 | 27.99065 | -82.01408 | 132 ft | 0 kts | 223° |
| 2026-04-22 00:04 | 27.99066 | -82.01408 | 132 ft | 0 kts | 223° |
| 2026-04-22 00:05 | 27.99043 | -82.01432 | 132 ft | 11 kts | 224° |
| 2026-04-22 00:05 | 27.98970 | -82.01514 | 135 ft | 18 kts | 226° |
| 2026-04-22 00:06 | 27.98870 | -82.01625 | 135 ft | 19 kts | 225° |
| 2026-04-22 00:06 | 27.98772 | -82.01732 | 132 ft | 19 kts | 225° |
| 2026-04-22 00:06 | 27.98732 | -82.01849 | 131 ft | 19 kts | 269° |
| 2026-04-22 00:06 | 27.98733 | -82.02022 | 131 ft | 21 kts | 270° |
| 2026-04-22 00:07 | 27.98732 | -82.02191 | 130 ft | 19 kts | 270° |
| 2026-04-22 00:07 | 27.98745 | -82.02295 | 129 ft | 11 kts | 345° |
| 2026-04-22 00:07 | 27.98818 | -82.02328 | 131 ft | 14 kts | 272° |
| 2026-04-22 00:07 | 27.98816 | -82.02454 | 131 ft | 18 kts | 269° |
| 2026-04-22 00:08 | 27.98816 | -82.02611 | 131 ft | 22 kts | 270° |
| 2026-04-22 00:08 | 27.98816 | -82.02793 | 131 ft | 20 kts | 270° |
| 2026-04-22 00:08 | 27.98816 | -82.02949 | 131 ft | 21 kts | 269° |
| 2026-04-22 00:08 | 27.98816 | -82.03098 | 131 ft | 16 kts | 270° |
| 2026-04-22 00:09 | 27.98814 | -82.03236 | 131 ft | 18 kts | 271° |
| 2026-04-22 00:09 | 27.98821 | -82.03331 | 129 ft | 8 kts | 300° |
| 2026-04-22 00:09 | 27.98838 | -82.03349 | 132 ft | 0 kts | 341° |
| 2026-04-22 00:10 | 27.98838 | -82.03348 | 132 ft | 0 kts | 341° |
| 2026-04-22 00:12 | 27.98852 | -82.03351 | 132 ft | 7 kts | 351° |
| 2026-04-22 00:13 | 27.98917 | -82.03354 | 134 ft | 9 kts | 29° |
| 2026-04-22 00:13 | 27.98925 | -82.03339 | 134 ft | 0 kts | 89° |
| 2026-04-22 00:13 | 27.98925 | -82.03340 | 134 ft | 0 kts | 89° |
| 2026-04-22 00:14 | 27.98926 | -82.03305 | 134 ft | 16 kts | 89° |
| 2026-04-22 00:15 | 27.98928 | -82.02861 | 141 ft | 95 kts | 91° |
| 2026-04-22 00:15 | 27.98925 | -82.01991 | 356 ft | 124 kts | 92° |
| 2026-04-22 00:15 | 27.98924 | -82.00915 | 616 ft | 145 kts | 90° |
| 2026-04-22 00:15 | 27.98941 | -81.99736 | 874 ft | 155 kts | 89° |
| 2026-04-22 00:16 | 27.98964 | -81.98495 | 1025 ft | 161 kts | 88° |
| 2026-04-22 00:16 | 27.99000 | -81.97237 | 1219 ft | 158 kts | 89° |
| 2026-04-22 00:16 | 27.99035 | -81.96001 | 1324 ft | 153 kts | 89° |
| 2026-04-22 00:16 | 27.99061 | -81.94827 | 1520 ft | 142 kts | 89° |
| 2026-04-22 00:17 | 27.99086 | -81.93726 | 1680 ft | 138 kts | 88° |
| 2026-04-22 00:17 | 27.99114 | -81.92649 | 1851 ft | 139 kts | 90° |
| 2026-04-22 00:17 | 27.99130 | -81.91535 | 1962 ft | 142 kts | 89° |
| 2026-04-22 00:17 | 27.99141 | -81.90425 | 2124 ft | 139 kts | 88° |
| 2026-04-22 00:18 | 27.99176 | -81.89330 | 2259 ft | 142 kts | 87° |
| 2026-04-22 00:18 | 27.99236 | -81.88190 | 2280 ft | 147 kts | 87° |
| 2026-04-22 00:18 | 27.99281 | -81.87032 | 2375 ft | 146 kts | 87° |
| 2026-04-22 00:18 | 27.99331 | -81.85882 | 2435 ft | 148 kts | 87° |
| 2026-04-22 00:19 | 27.99366 | -81.84707 | 2488 ft | 151 kts | 89° |
| 2026-04-22 00:19 | 27.99400 | -81.83537 | 2606 ft | 147 kts | 89° |
| 2026-04-22 00:19 | 27.99357 | -81.82392 | 2712 ft | 145 kts | 98° |
| 2026-04-22 00:19 | 27.99091 | -81.81284 | 2794 ft | 147 kts | 109° |
| 2026-04-22 00:20 | 27.98614 | -81.80255 | 2886 ft | 148 kts | 121° |
| 2026-04-22 00:20 | 27.97938 | -81.79370 | 2957 ft | 151 kts | 134° |
| 2026-04-22 00:20 | 27.97069 | -81.78704 | 3014 ft | 155 kts | 147° |
| 2026-04-22 00:20 | 27.96058 | -81.78246 | 3058 ft | 160 kts | 156° |
| 2026-04-22 00:21 | 27.94960 | -81.77919 | 3053 ft | 165 kts | 160° |
| 2026-04-22 00:21 | 27.93823 | -81.77694 | 3118 ft | 167 kts | 169° |
| 2026-04-22 00:21 | 27.92652 | -81.77686 | 3141 ft | 171 kts | 178° |
| 2026-04-22 00:21 | 27.91481 | -81.77976 | 3220 ft | 174 kts | 193° |
| 2026-04-22 00:22 | 27.90390 | -81.78616 | 3234 ft | 182 kts | 210° |
| 2026-04-22 00:22 | 27.89490 | -81.79646 | 3259 ft | 187 kts | 231° |
| 2026-04-22 00:22 | 27.88887 | -81.80994 | 3149 ft | 198 kts | 249° |
| 2026-04-22 00:22 | 27.88505 | -81.82538 | 2930 ft | 205 kts | 253° |
| 2026-04-22 00:23 | 27.88132 | -81.84048 | 3004 ft | 196 kts | 256° |
| 2026-04-22 00:23 | 27.87876 | -81.85574 | 2924 ft | 198 kts | 260° |
| 2026-04-22 00:23 | 27.87657 | -81.87138 | 2780 ft | 202 kts | 260° |
| 2026-04-22 00:23 | 27.87413 | -81.88713 | 2651 ft | 204 kts | 259° |
| 2026-04-22 00:24 | 27.87229 | -81.90293 | 2671 ft | 199 kts | 264° |
| 2026-04-22 00:24 | 27.87129 | -81.91814 | 2755 ft | 193 kts | 266° |
| 2026-04-22 00:24 | 27.87023 | -81.93311 | 2780 ft | 191 kts | 265° |
| 2026-04-22 00:24 | 27.86906 | -81.94819 | 2777 ft | 193 kts | 264° |
| 2026-04-22 00:25 | 27.86788 | -81.96331 | 2783 ft | 193 kts | 264° |
| 2026-04-22 00:25 | 27.86673 | -81.97848 | 2778 ft | 194 kts | 265° |
| 2026-04-22 00:25 | 27.86560 | -81.99370 | 2780 ft | 195 kts | 264° |
| 2026-04-22 00:25 | 27.86450 | -82.00896 | 2781 ft | 195 kts | 265° |
| 2026-04-22 00:26 | 27.86335 | -82.02414 | 2780 ft | 195 kts | 264° |
| 2026-04-22 00:26 | 27.86224 | -82.03942 | 2782 ft | 195 kts | 265° |
| 2026-04-22 00:26 | 27.86112 | -82.05470 | 2779 ft | 195 kts | 264° |
| 2026-04-22 00:26 | 27.86008 | -82.06997 | 2780 ft | 195 kts | 265° |
| 2026-04-22 00:27 | 27.85897 | -82.08522 | 2783 ft | 195 kts | 265° |
| 2026-04-22 00:27 | 27.85782 | -82.10049 | 2783 ft | 195 kts | 264° |
| 2026-04-22 00:27 | 27.85678 | -82.11578 | 2789 ft | 195 kts | 264° |
| 2026-04-22 00:27 | 27.85586 | -82.13111 | 2792 ft | 195 kts | 265° |
| 2026-04-22 00:28 | 27.85485 | -82.14643 | 2788 ft | 195 kts | 265° |
| 2026-04-22 00:28 | 27.85370 | -82.16163 | 2787 ft | 194 kts | 264° |
| 2026-04-22 00:28 | 27.85256 | -82.17684 | 2787 ft | 194 kts | 265° |
| 2026-04-22 00:28 | 27.85141 | -82.19205 | 2784 ft | 195 kts | 264° |
| 2026-04-22 00:29 | 27.85064 | -82.20222 | 2792 ft | 196 kts | 265° |
| 2026-04-22 00:29 | 27.85029 | -82.20698 | 2787 ft | 196 kts | 265° |
| 2026-04-22 00:29 | 27.84933 | -82.21978 | 2789 ft | 197 kts | 264° |
| 2026-04-22 00:29 | 27.84821 | -82.23517 | 2788 ft | 195 kts | 265° |
| 2026-04-22 00:30 | 27.84702 | -82.25040 | 2786 ft | 194 kts | 264° |
| 2026-04-22 00:30 | 27.84669 | -82.25480 | 2790 ft | 194 kts | 264° |